sensor_id;sensor_type;location;lat;lon;timestamp;P1;durP1;ratioP1;P2;durP2;ratioP2
13222;SDS011;6676;45.192;5.722;2023-02-15T00:01:12;17.95;;;9.75;;
13222;SDS011;6676;45.192;5.722;2023-02-15T00:04:13;12.03;;;9.28;;
13222;SDS011;6676;45.192;5.722;2023-02-15T00:07:08;15.98;;;10.00;;
13222;SDS011;6676;45.192;5.722;2023-02-15T00:10:02;18.32;;;10.20;;
13222;SDS011;6676;45.192;5.722;2023-02-15T00:13:00;14.63;;;9.85;;
13222;SDS011;6676;45.192;5.722;2023-02-15T00:16:02;16.05;;;10.82;;
13222;SDS011;6676;45.192;5.722;2023-02-15T00:21:43;17.92;;;10.70;;
13222;SDS011;6676;45.192;5.722;2023-02-15T00:27:14;16.75;;;10.82;;
13222;SDS011;6676;45.192;5.722;2023-02-15T00:30:07;16.97;;;10.58;;
13222;SDS011;6676;45.192;5.722;2023-02-15T00:32:59;17.23;;;10.93;;
13222;SDS011;6676;45.192;5.722;2023-02-15T00:35:56;17.62;;;11.15;;
13222;SDS011;6676;45.192;5.722;2023-02-15T00:38:48;17.12;;;10.65;;
13222;SDS011;6676;45.192;5.722;2023-02-15T00:41:40;17.62;;;11.20;;
13222;SDS011;6676;45.192;5.722;2023-02-15T00:44:32;20.35;;;11.70;;
13222;SDS011;6676;45.192;5.722;2023-02-15T00:47:24;18.55;;;11.08;;
13222;SDS011;6676;45.192;5.722;2023-02-15T00:50:16;16.97;;;10.98;;
13222;SDS011;6676;45.192;5.722;2023-02-15T00:55:51;17.92;;;11.68;;
13222;SDS011;6676;45.192;5.722;2023-02-15T01:01:28;15.00;;;10.53;;
13222;SDS011;6676;45.192;5.722;2023-02-15T01:07:04;16.27;;;10.38;;
13222;SDS011;6676;45.192;5.722;2023-02-15T01:09:58;15.48;;;10.60;;
13222;SDS011;6676;45.192;5.722;2023-02-15T01:12:51;18.82;;;11.55;;
13222;SDS011;6676;45.192;5.722;2023-02-15T01:15:43;20.57;;;12.60;;
13222;SDS011;6676;45.192;5.722;2023-02-15T01:21:23;19.02;;;11.88;;
13222;SDS011;6676;45.192;5.722;2023-02-15T01:24:15;18.17;;;12.05;;
13222;SDS011;6676;45.192;5.722;2023-02-15T01:27:08;15.48;;;10.45;;
13222;SDS011;6676;45.192;5.722;2023-02-15T01:30:06;19.25;;;11.38;;
13222;SDS011;6676;45.192;5.722;2023-02-15T01:33:05;16.35;;;10.75;;
13222;SDS011;6676;45.192;5.722;2023-02-15T01:35:59;14.63;;;10.93;;
13222;SDS011;6676;45.192;5.722;2023-02-15T01:38:52;19.00;;;11.65;;
13222;SDS011;6676;45.192;5.722;2023-02-15T01:44:46;17.85;;;11.63;;
13222;SDS011;6676;45.192;5.722;2023-02-15T01:47:41;18.00;;;11.33;;
13222;SDS011;6676;45.192;5.722;2023-02-15T01:53:18;16.62;;;10.15;;
13222;SDS011;6676;45.192;5.722;2023-02-15T01:56:13;17.57;;;11.22;;
13222;SDS011;6676;45.192;5.722;2023-02-15T01:59:09;17.35;;;11.08;;
13222;SDS011;6676;45.192;5.722;2023-02-15T02:02:42;14.95;;;9.55;;
13222;SDS011;6676;45.192;5.722;2023-02-15T02:05:36;21.62;;;11.78;;
13222;SDS011;6676;45.192;5.722;2023-02-15T02:08:29;16.20;;;8.83;;
13222;SDS011;6676;45.192;5.722;2023-02-15T02:11:22;14.60;;;9.63;;
13222;SDS011;6676;45.192;5.722;2023-02-15T02:14:14;17.90;;;10.75;;
13222;SDS011;6676;45.192;5.722;2023-02-15T02:17:07;14.20;;;9.60;;
13222;SDS011;6676;45.192;5.722;2023-02-15T02:20:14;16.60;;;9.53;;
13222;SDS011;6676;45.192;5.722;2023-02-15T02:36:20;15.15;;;10.15;;
13222;SDS011;6676;45.192;5.722;2023-02-15T02:41:58;13.43;;;8.95;;
13222;SDS011;6676;45.192;5.722;2023-02-15T03:01:45;11.55;;;7.90;;
13222;SDS011;6676;45.192;5.722;2023-02-15T03:04:39;11.80;;;8.43;;
13222;SDS011;6676;45.192;5.722;2023-02-15T03:07:32;13.93;;;9.08;;
13222;SDS011;6676;45.192;5.722;2023-02-15T03:10:26;12.65;;;8.53;;
13222;SDS011;6676;45.192;5.722;2023-02-15T03:13:18;14.90;;;9.75;;
13222;SDS011;6676;45.192;5.722;2023-02-15T03:16:11;14.87;;;9.70;;
13222;SDS011;6676;45.192;5.722;2023-02-15T03:22:04;18.23;;;10.88;;
13222;SDS011;6676;45.192;5.722;2023-02-15T03:25:02;17.05;;;10.95;;
13222;SDS011;6676;45.192;5.722;2023-02-15T03:27:58;14.80;;;9.90;;
13222;SDS011;6676;45.192;5.722;2023-02-15T03:30:52;15.35;;;10.90;;
13222;SDS011;6676;45.192;5.722;2023-02-15T03:33:49;14.90;;;10.08;;
13222;SDS011;6676;45.192;5.722;2023-02-15T03:36:33;16.62;;;10.55;;
13222;SDS011;6676;45.192;5.722;2023-02-15T03:39:28;17.60;;;10.95;;
13222;SDS011;6676;45.192;5.722;2023-02-15T03:42:16;15.83;;;10.50;;
13222;SDS011;6676;45.192;5.722;2023-02-15T03:45:10;17.05;;;10.63;;
13222;SDS011;6676;45.192;5.722;2023-02-15T03:47:52;17.82;;;11.25;;
13222;SDS011;6676;45.192;5.722;2023-02-15T03:50:48;16.17;;;10.15;;
13222;SDS011;6676;45.192;5.722;2023-02-15T03:53:58;15.28;;;9.65;;
13222;SDS011;6676;45.192;5.722;2023-02-15T03:56:52;14.63;;;10.20;;
13222;SDS011;6676;45.192;5.722;2023-02-15T04:00:05;16.25;;;10.15;;
13222;SDS011;6676;45.192;5.722;2023-02-15T04:03:22;14.40;;;9.63;;
13222;SDS011;6676;45.192;5.722;2023-02-15T04:06:15;15.68;;;9.35;;
13222;SDS011;6676;45.192;5.722;2023-02-15T04:09:07;15.65;;;10.20;;
13222;SDS011;6676;45.192;5.722;2023-02-15T04:12:16;14.87;;;9.95;;
13222;SDS011;6676;45.192;5.722;2023-02-15T04:25:47;14.50;;;8.43;;
13222;SDS011;6676;45.192;5.722;2023-02-15T04:31:31;13.35;;;9.23;;
13222;SDS011;6676;45.192;5.722;2023-02-15T04:34:22;14.35;;;9.78;;
13222;SDS011;6676;45.192;5.722;2023-02-15T04:37:07;18.02;;;12.23;;
13222;SDS011;6676;45.192;5.722;2023-02-15T04:39:59;16.12;;;10.45;;
13222;SDS011;6676;45.192;5.722;2023-02-15T04:42:52;16.15;;;9.93;;
13222;SDS011;6676;45.192;5.722;2023-02-15T04:45:47;14.85;;;9.98;;
13222;SDS011;6676;45.192;5.722;2023-02-15T04:48:39;15.85;;;9.93;;
13222;SDS011;6676;45.192;5.722;2023-02-15T04:51:32;14.60;;;9.40;;
13222;SDS011;6676;45.192;5.722;2023-02-15T05:05:14;12.82;;;8.75;;
13222;SDS011;6676;45.192;5.722;2023-02-15T05:08:06;15.03;;;9.20;;
13222;SDS011;6676;45.192;5.722;2023-02-15T05:10:48;13.60;;;8.70;;
13222;SDS011;6676;45.192;5.722;2023-02-15T05:16:17;16.12;;;8.88;;
13222;SDS011;6676;45.192;5.722;2023-02-15T05:19:09;11.97;;;7.92;;
13222;SDS011;6676;45.192;5.722;2023-02-15T05:22:01;12.10;;;8.85;;
13222;SDS011;6676;45.192;5.722;2023-02-15T05:24:53;14.85;;;8.35;;
13222;SDS011;6676;45.192;5.722;2023-02-15T05:28:02;13.28;;;8.80;;
13222;SDS011;6676;45.192;5.722;2023-02-15T05:31:09;13.22;;;7.97;;
13222;SDS011;6676;45.192;5.722;2023-02-15T05:34:04;12.47;;;7.90;;
13222;SDS011;6676;45.192;5.722;2023-02-15T05:36:56;12.85;;;8.00;;
13222;SDS011;6676;45.192;5.722;2023-02-15T05:39:48;13.50;;;8.50;;
13222;SDS011;6676;45.192;5.722;2023-02-15T05:42:39;15.72;;;8.23;;
13222;SDS011;6676;45.192;5.722;2023-02-15T05:45:30;11.15;;;7.92;;
13222;SDS011;6676;45.192;5.722;2023-02-15T05:48:26;12.85;;;7.65;;
13222;SDS011;6676;45.192;5.722;2023-02-15T05:51:27;15.83;;;7.95;;
13222;SDS011;6676;45.192;5.722;2023-02-15T05:57:02;11.73;;;7.78;;
13222;SDS011;6676;45.192;5.722;2023-02-15T06:02:34;11.88;;;8.53;;
13222;SDS011;6676;45.192;5.722;2023-02-15T06:05:28;13.60;;;9.10;;
13222;SDS011;6676;45.192;5.722;2023-02-15T06:08:20;13.53;;;9.23;;
13222;SDS011;6676;45.192;5.722;2023-02-15T06:11:03;13.95;;;9.25;;
13222;SDS011;6676;45.192;5.722;2023-02-15T06:17:03;15.72;;;9.33;;
13222;SDS011;6676;45.192;5.722;2023-02-15T06:19:55;13.18;;;8.88;;
13222;SDS011;6676;45.192;5.722;2023-02-15T06:22:36;13.80;;;8.93;;
13222;SDS011;6676;45.192;5.722;2023-02-15T06:29:09;13.65;;;8.95;;
13222;SDS011;6676;45.192;5.722;2023-02-15T06:32:01;18.45;;;9.13;;
13222;SDS011;6676;45.192;5.722;2023-02-15T06:34:54;13.70;;;9.48;;
13222;SDS011;6676;45.192;5.722;2023-02-15T06:37:49;13.93;;;9.03;;
13222;SDS011;6676;45.192;5.722;2023-02-15T06:40:41;13.10;;;8.50;;
13222;SDS011;6676;45.192;5.722;2023-02-15T06:43:32;13.45;;;8.38;;
13222;SDS011;6676;45.192;5.722;2023-02-15T06:46:27;10.78;;;7.95;;
13222;SDS011;6676;45.192;5.722;2023-02-15T06:49:19;17.65;;;9.13;;
13222;SDS011;6676;45.192;5.722;2023-02-15T06:52:11;13.45;;;8.63;;
13222;SDS011;6676;45.192;5.722;2023-02-15T06:55:03;13.98;;;7.67;;
13222;SDS011;6676;45.192;5.722;2023-02-15T07:00:41;14.23;;;8.28;;
13222;SDS011;6676;45.192;5.722;2023-02-15T07:03:37;16.05;;;8.03;;
13222;SDS011;6676;45.192;5.722;2023-02-15T07:06:31;10.75;;;8.20;;
13222;SDS011;6676;45.192;5.722;2023-02-15T07:09:24;13.32;;;7.95;;
13222;SDS011;6676;45.192;5.722;2023-02-15T07:12:15;13.85;;;8.45;;
13222;SDS011;6676;45.192;5.722;2023-02-15T07:31:17;14.80;;;9.13;;
13222;SDS011;6676;45.192;5.722;2023-02-15T07:34:12;13.38;;;9.05;;
13222;SDS011;6676;45.192;5.722;2023-02-15T07:37:04;14.98;;;8.95;;
13222;SDS011;6676;45.192;5.722;2023-02-15T07:39:56;12.65;;;8.85;;
13222;SDS011;6676;45.192;5.722;2023-02-15T07:42:58;16.30;;;8.90;;
13222;SDS011;6676;45.192;5.722;2023-02-15T07:48:23;19.37;;;10.55;;
13222;SDS011;6676;45.192;5.722;2023-02-15T07:51:23;13.75;;;10.15;;
13222;SDS011;6676;45.192;5.722;2023-02-15T07:54:39;13.15;;;9.73;;
13222;SDS011;6676;45.192;5.722;2023-02-15T07:57:35;15.85;;;9.70;;
13222;SDS011;6676;45.192;5.722;2023-02-15T08:00:17;17.32;;;10.00;;
13222;SDS011;6676;45.192;5.722;2023-02-15T08:03:13;16.30;;;9.70;;
13222;SDS011;6676;45.192;5.722;2023-02-15T08:06:04;16.20;;;9.30;;
13222;SDS011;6676;45.192;5.722;2023-02-15T08:11:50;16.90;;;11.10;;
13222;SDS011;6676;45.192;5.722;2023-02-15T08:14:46;15.65;;;9.53;;
13222;SDS011;6676;45.192;5.722;2023-02-15T08:17:44;13.60;;;9.08;;
13222;SDS011;6676;45.192;5.722;2023-02-15T08:20:36;14.30;;;9.08;;
13222;SDS011;6676;45.192;5.722;2023-02-15T08:26:47;13.55;;;9.00;;
13222;SDS011;6676;45.192;5.722;2023-02-15T08:29:41;15.32;;;9.20;;
13222;SDS011;6676;45.192;5.722;2023-02-15T08:33:02;15.25;;;9.30;;
13222;SDS011;6676;45.192;5.722;2023-02-15T08:35:56;12.70;;;9.33;;
13222;SDS011;6676;45.192;5.722;2023-02-15T08:38:49;12.30;;;8.20;;
13222;SDS011;6676;45.192;5.722;2023-02-15T08:41:42;14.50;;;9.23;;
13222;SDS011;6676;45.192;5.722;2023-02-15T08:47:28;17.42;;;9.28;;
13222;SDS011;6676;45.192;5.722;2023-02-15T08:50:21;15.48;;;8.95;;
13222;SDS011;6676;45.192;5.722;2023-02-15T08:53:14;15.48;;;9.80;;
13222;SDS011;6676;45.192;5.722;2023-02-15T08:56:07;14.25;;;9.68;;
13222;SDS011;6676;45.192;5.722;2023-02-15T08:59:00;15.95;;;9.45;;
13222;SDS011;6676;45.192;5.722;2023-02-15T09:01:59;16.02;;;9.48;;
13222;SDS011;6676;45.192;5.722;2023-02-15T09:04:56;14.33;;;8.68;;
13222;SDS011;6676;45.192;5.722;2023-02-15T09:07:48;12.35;;;9.18;;
13222;SDS011;6676;45.192;5.722;2023-02-15T09:10:49;14.83;;;9.28;;
13222;SDS011;6676;45.192;5.722;2023-02-15T09:13:32;16.70;;;11.10;;
13222;SDS011;6676;45.192;5.722;2023-02-15T09:16:26;13.95;;;9.90;;
13222;SDS011;6676;45.192;5.722;2023-02-15T09:19:21;15.45;;;10.05;;
13222;SDS011;6676;45.192;5.722;2023-02-15T09:22:15;15.68;;;10.35;;
13222;SDS011;6676;45.192;5.722;2023-02-15T09:25:10;13.43;;;9.75;;
13222;SDS011;6676;45.192;5.722;2023-02-15T09:28:02;12.20;;;9.05;;
13222;SDS011;6676;45.192;5.722;2023-02-15T09:31:00;13.68;;;9.38;;
13222;SDS011;6676;45.192;5.722;2023-02-15T09:34:11;15.63;;;9.85;;
13222;SDS011;6676;45.192;5.722;2023-02-15T09:37:05;14.30;;;9.00;;
13222;SDS011;6676;45.192;5.722;2023-02-15T09:39:58;12.30;;;9.23;;
13222;SDS011;6676;45.192;5.722;2023-02-15T09:43:01;16.00;;;8.70;;
13222;SDS011;6676;45.192;5.722;2023-02-15T09:46:14;15.80;;;9.13;;
13222;SDS011;6676;45.192;5.722;2023-02-15T09:52:42;13.58;;;9.85;;
13222;SDS011;6676;45.192;5.722;2023-02-15T09:58:21;11.90;;;8.60;;
13222;SDS011;6676;45.192;5.722;2023-02-15T10:12:17;12.95;;;7.25;;
13222;SDS011;6676;45.192;5.722;2023-02-15T10:15:38;14.25;;;7.22;;
13222;SDS011;6676;45.192;5.722;2023-02-15T10:18:59;11.05;;;6.75;;
13222;SDS011;6676;45.192;5.722;2023-02-15T10:21:56;12.40;;;7.67;;
13222;SDS011;6676;45.192;5.722;2023-02-15T10:25:08;13.93;;;7.35;;
13222;SDS011;6676;45.192;5.722;2023-02-15T10:28:17;10.45;;;7.55;;
13222;SDS011;6676;45.192;5.722;2023-02-15T10:31:16;11.48;;;6.80;;
13222;SDS011;6676;45.192;5.722;2023-02-15T10:34:19;13.83;;;7.90;;
13222;SDS011;6676;45.192;5.722;2023-02-15T10:37:28;12.93;;;8.10;;
13222;SDS011;6676;45.192;5.722;2023-02-15T10:40:19;13.72;;;7.72;;
13222;SDS011;6676;45.192;5.722;2023-02-15T10:43:19;13.30;;;7.67;;
13222;SDS011;6676;45.192;5.722;2023-02-15T10:46:26;17.17;;;8.23;;
13222;SDS011;6676;45.192;5.722;2023-02-15T10:52:20;12.53;;;6.42;;
13222;SDS011;6676;45.192;5.722;2023-02-15T10:55:18;11.12;;;6.15;;
13222;SDS011;6676;45.192;5.722;2023-02-15T10:58:19;11.25;;;6.78;;
13222;SDS011;6676;45.192;5.722;2023-02-15T11:04:09;9.50;;;6.80;;
13222;SDS011;6676;45.192;5.722;2023-02-15T11:07:16;10.05;;;6.33;;
13222;SDS011;6676;45.192;5.722;2023-02-15T11:10:18;13.60;;;6.42;;
13222;SDS011;6676;45.192;5.722;2023-02-15T11:26:12;12.13;;;7.25;;
13222;SDS011;6676;45.192;5.722;2023-02-15T11:29:07;12.40;;;7.75;;
13222;SDS011;6676;45.192;5.722;2023-02-15T11:32:03;11.55;;;8.18;;
13222;SDS011;6676;45.192;5.722;2023-02-15T11:35:36;16.60;;;8.45;;
13222;SDS011;6676;45.192;5.722;2023-02-15T11:38:32;11.97;;;7.95;;
13222;SDS011;6676;45.192;5.722;2023-02-15T11:53:30;12.82;;;9.08;;
13222;SDS011;6676;45.192;5.722;2023-02-15T11:59:12;16.35;;;10.43;;
13222;SDS011;6676;45.192;5.722;2023-02-15T12:02:29;16.42;;;10.25;;
13222;SDS011;6676;45.192;5.722;2023-02-15T12:05:26;18.57;;;11.10;;
13222;SDS011;6676;45.192;5.722;2023-02-15T12:08:19;15.10;;;9.75;;
13222;SDS011;6676;45.192;5.722;2023-02-15T12:11:15;17.35;;;12.07;;
13222;SDS011;6676;45.192;5.722;2023-02-15T12:14:10;21.75;;;12.37;;
13222;SDS011;6676;45.192;5.722;2023-02-15T12:17:04;17.70;;;12.30;;
13222;SDS011;6676;45.192;5.722;2023-02-15T12:20:01;13.75;;;10.80;;
13222;SDS011;6676;45.192;5.722;2023-02-15T12:22:59;13.68;;;8.60;;
13222;SDS011;6676;45.192;5.722;2023-02-15T12:25:53;13.80;;;7.33;;
13222;SDS011;6676;45.192;5.722;2023-02-15T12:28:49;15.83;;;9.98;;
13222;SDS011;6676;45.192;5.722;2023-02-15T12:31:44;14.58;;;9.28;;
13222;SDS011;6676;45.192;5.722;2023-02-15T12:37:33;17.37;;;11.50;;
13222;SDS011;6676;45.192;5.722;2023-02-15T12:43:09;18.70;;;13.15;;
13222;SDS011;6676;45.192;5.722;2023-02-15T12:46:14;16.85;;;11.50;;
13222;SDS011;6676;45.192;5.722;2023-02-15T12:52:03;18.82;;;12.70;;
13222;SDS011;6676;45.192;5.722;2023-02-15T12:55:17;18.25;;;10.95;;
13222;SDS011;6676;45.192;5.722;2023-02-15T12:58:16;16.20;;;11.20;;
13222;SDS011;6676;45.192;5.722;2023-02-15T13:27:35;11.53;;;7.37;;
13222;SDS011;6676;45.192;5.722;2023-02-15T13:30:31;12.58;;;6.95;;
13222;SDS011;6676;45.192;5.722;2023-02-15T13:33:26;10.48;;;6.60;;
13222;SDS011;6676;45.192;5.722;2023-02-15T13:36:26;12.58;;;7.12;;
13222;SDS011;6676;45.192;5.722;2023-02-15T13:39:27;10.20;;;6.63;;
13222;SDS011;6676;45.192;5.722;2023-02-15T13:42:25;11.00;;;6.55;;
13222;SDS011;6676;45.192;5.722;2023-02-15T13:45:37;10.95;;;6.30;;
13222;SDS011;6676;45.192;5.722;2023-02-15T13:48:41;9.85;;;5.28;;
13222;SDS011;6676;45.192;5.722;2023-02-15T13:51:43;8.10;;;5.25;;
13222;SDS011;6676;45.192;5.722;2023-02-15T13:54:48;10.45;;;8.15;;
13222;SDS011;6676;45.192;5.722;2023-02-15T13:58:00;10.55;;;7.60;;
13222;SDS011;6676;45.192;5.722;2023-02-15T14:01:04;9.35;;;6.97;;
13222;SDS011;6676;45.192;5.722;2023-02-15T14:07:50;8.43;;;5.60;;
13222;SDS011;6676;45.192;5.722;2023-02-15T14:10:49;9.73;;;6.47;;
13222;SDS011;6676;45.192;5.722;2023-02-15T14:13:58;8.10;;;5.75;;
13222;SDS011;6676;45.192;5.722;2023-02-15T14:17:06;8.28;;;6.03;;
13222;SDS011;6676;45.192;5.722;2023-02-15T14:20:03;13.08;;;5.83;;
13222;SDS011;6676;45.192;5.722;2023-02-15T14:23:01;9.33;;;5.75;;
13222;SDS011;6676;45.192;5.722;2023-02-15T14:25:54;11.05;;;5.75;;
13222;SDS011;6676;45.192;5.722;2023-02-15T14:28:51;10.13;;;6.75;;
13222;SDS011;6676;45.192;5.722;2023-02-15T14:31:34;9.43;;;6.40;;
13222;SDS011;6676;45.192;5.722;2023-02-15T14:34:29;10.08;;;5.92;;
13222;SDS011;6676;45.192;5.722;2023-02-15T14:37:24;10.30;;;5.70;;
13222;SDS011;6676;45.192;5.722;2023-02-15T14:40:26;7.72;;;6.03;;
13222;SDS011;6676;45.192;5.722;2023-02-15T14:46:34;12.63;;;5.78;;
13222;SDS011;6676;45.192;5.722;2023-02-15T14:49:30;7.70;;;5.40;;
13222;SDS011;6676;45.192;5.722;2023-02-15T14:52:22;8.93;;;5.35;;
13222;SDS011;6676;45.192;5.722;2023-02-15T14:55:14;9.20;;;5.35;;
13222;SDS011;6676;45.192;5.722;2023-02-15T14:57:58;9.20;;;6.50;;
13222;SDS011;6676;45.192;5.722;2023-02-15T15:00:50;7.53;;;5.45;;
13222;SDS011;6676;45.192;5.722;2023-02-15T15:03:44;6.80;;;5.58;;
13222;SDS011;6676;45.192;5.722;2023-02-15T15:06:40;7.95;;;5.53;;
13222;SDS011;6676;45.192;5.722;2023-02-15T15:09:33;7.75;;;6.12;;
13222;SDS011;6676;45.192;5.722;2023-02-15T15:12:38;8.78;;;6.50;;
13222;SDS011;6676;45.192;5.722;2023-02-15T15:15:33;10.82;;;6.12;;
13222;SDS011;6676;45.192;5.722;2023-02-15T15:48:19;8.83;;;5.92;;
13222;SDS011;6676;45.192;5.722;2023-02-15T15:51:03;9.10;;;6.50;;
13222;SDS011;6676;45.192;5.722;2023-02-15T15:53:58;10.32;;;6.47;;
13222;SDS011;6676;45.192;5.722;2023-02-15T15:56:53;11.43;;;6.35;;
13222;SDS011;6676;45.192;5.722;2023-02-15T15:59:47;8.03;;;6.30;;
13222;SDS011;6676;45.192;5.722;2023-02-15T16:02:49;8.50;;;6.03;;
13222;SDS011;6676;45.192;5.722;2023-02-15T16:05:41;9.68;;;6.45;;
13222;SDS011;6676;45.192;5.722;2023-02-15T16:08:35;11.28;;;7.20;;
13222;SDS011;6676;45.192;5.722;2023-02-15T16:11:29;9.25;;;6.97;;
13222;SDS011;6676;45.192;5.722;2023-02-15T16:14:24;10.03;;;7.30;;
13222;SDS011;6676;45.192;5.722;2023-02-15T16:17:18;8.25;;;6.42;;
13222;SDS011;6676;45.192;5.722;2023-02-15T16:20:14;9.33;;;6.75;;
13222;SDS011;6676;45.192;5.722;2023-02-15T16:23:15;8.88;;;6.92;;
13222;SDS011;6676;45.192;5.722;2023-02-15T16:26:10;12.68;;;7.05;;
13222;SDS011;6676;45.192;5.722;2023-02-15T16:29:12;11.10;;;7.47;;
13222;SDS011;6676;45.192;5.722;2023-02-15T16:32:06;10.50;;;7.50;;
13222;SDS011;6676;45.192;5.722;2023-02-15T16:35:13;10.82;;;7.37;;
13222;SDS011;6676;45.192;5.722;2023-02-15T16:38:08;12.70;;;7.53;;
13222;SDS011;6676;45.192;5.722;2023-02-15T16:41:01;9.38;;;6.58;;
13222;SDS011;6676;45.192;5.722;2023-02-15T16:43:53;10.93;;;7.58;;
13222;SDS011;6676;45.192;5.722;2023-02-15T16:46:50;8.48;;;6.92;;
13222;SDS011;6676;45.192;5.722;2023-02-15T16:49:44;11.25;;;7.42;;
13222;SDS011;6676;45.192;5.722;2023-02-15T16:52:38;13.30;;;7.25;;
13222;SDS011;6676;45.192;5.722;2023-02-15T16:55:34;9.65;;;7.58;;
13222;SDS011;6676;45.192;5.722;2023-02-15T16:58:32;10.05;;;7.15;;
13222;SDS011;6676;45.192;5.722;2023-02-15T17:01:28;12.75;;;7.45;;
13222;SDS011;6676;45.192;5.722;2023-02-15T17:04:29;10.03;;;7.03;;
13222;SDS011;6676;45.192;5.722;2023-02-15T17:07:25;7.40;;;6.47;;
13222;SDS011;6676;45.192;5.722;2023-02-15T17:10:27;9.00;;;6.65;;
13222;SDS011;6676;45.192;5.722;2023-02-15T17:13:21;7.72;;;6.40;;
13222;SDS011;6676;45.192;5.722;2023-02-15T17:16:29;8.65;;;6.55;;
13222;SDS011;6676;45.192;5.722;2023-02-15T17:19:23;12.15;;;6.80;;
13222;SDS011;6676;45.192;5.722;2023-02-15T17:22:20;8.73;;;6.62;;
13222;SDS011;6676;45.192;5.722;2023-02-15T17:25:19;10.88;;;6.42;;
13222;SDS011;6676;45.192;5.722;2023-02-15T17:28:16;10.50;;;6.50;;
13222;SDS011;6676;45.192;5.722;2023-02-15T17:31:13;11.48;;;6.85;;
13222;SDS011;6676;45.192;5.722;2023-02-15T17:34:09;9.10;;;6.42;;
13222;SDS011;6676;45.192;5.722;2023-02-15T17:37:03;9.28;;;6.85;;
13222;SDS011;6676;45.192;5.722;2023-02-15T17:40:01;11.48;;;7.17;;
13222;SDS011;6676;45.192;5.722;2023-02-15T17:42:59;11.15;;;7.83;;
13222;SDS011;6676;45.192;5.722;2023-02-15T17:45:53;9.88;;;7.80;;
13222;SDS011;6676;45.192;5.722;2023-02-15T17:48:47;13.35;;;8.33;;
13222;SDS011;6676;45.192;5.722;2023-02-15T17:51:40;11.63;;;8.03;;
13222;SDS011;6676;45.192;5.722;2023-02-15T17:54:33;12.00;;;8.38;;
13222;SDS011;6676;45.192;5.722;2023-02-15T17:57:42;10.10;;;7.55;;
13222;SDS011;6676;45.192;5.722;2023-02-15T18:00:36;10.72;;;7.22;;
13222;SDS011;6676;45.192;5.722;2023-02-15T18:03:48;11.68;;;7.53;;
13222;SDS011;6676;45.192;5.722;2023-02-15T18:07:00;16.02;;;7.42;;
13222;SDS011;6676;45.192;5.722;2023-02-15T18:10:14;13.58;;;8.23;;
13222;SDS011;6676;45.192;5.722;2023-02-15T18:13:26;12.68;;;7.55;;
13222;SDS011;6676;45.192;5.722;2023-02-15T18:16:18;13.08;;;7.62;;
13222;SDS011;6676;45.192;5.722;2023-02-15T18:19:14;14.23;;;7.62;;
13222;SDS011;6676;45.192;5.722;2023-02-15T18:22:08;11.45;;;7.58;;
13222;SDS011;6676;45.192;5.722;2023-02-15T18:25:02;16.82;;;8.68;;
13222;SDS011;6676;45.192;5.722;2023-02-15T18:27:57;13.55;;;8.40;;
13222;SDS011;6676;45.192;5.722;2023-02-15T18:30:55;14.23;;;8.35;;
13222;SDS011;6676;45.192;5.722;2023-02-15T18:33:51;13.55;;;8.18;;
13222;SDS011;6676;45.192;5.722;2023-02-15T18:36:44;12.25;;;7.60;;
13222;SDS011;6676;45.192;5.722;2023-02-15T18:39:38;13.30;;;8.68;;
13222;SDS011;6676;45.192;5.722;2023-02-15T18:43:17;19.42;;;9.38;;
13222;SDS011;6676;45.192;5.722;2023-02-15T18:46:09;15.63;;;9.38;;
13222;SDS011;6676;45.192;5.722;2023-02-15T18:49:01;16.00;;;9.93;;
13222;SDS011;6676;45.192;5.722;2023-02-15T18:51:55;18.37;;;11.83;;
13222;SDS011;6676;45.192;5.722;2023-02-15T18:54:48;18.42;;;11.50;;
13222;SDS011;6676;45.192;5.722;2023-02-15T18:57:43;18.23;;;10.78;;
13222;SDS011;6676;45.192;5.722;2023-02-15T19:00:26;16.05;;;10.88;;
13222;SDS011;6676;45.192;5.722;2023-02-15T19:03:22;14.78;;;10.28;;
13222;SDS011;6676;45.192;5.722;2023-02-15T19:06:14;21.48;;;10.80;;
13222;SDS011;6676;45.192;5.722;2023-02-15T19:09:10;19.45;;;12.13;;
13222;SDS011;6676;45.192;5.722;2023-02-15T19:12:07;21.10;;;11.57;;
13222;SDS011;6676;45.192;5.722;2023-02-15T19:15:04;16.82;;;11.20;;
13222;SDS011;6676;45.192;5.722;2023-02-15T19:17:44;15.28;;;10.05;;
13222;SDS011;6676;45.192;5.722;2023-02-15T19:20:37;20.17;;;10.90;;
13222;SDS011;6676;45.192;5.722;2023-02-15T19:23:33;21.77;;;11.37;;
13222;SDS011;6676;45.192;5.722;2023-02-15T19:26:25;18.07;;;9.88;;
13222;SDS011;6676;45.192;5.722;2023-02-15T19:29:23;13.20;;;9.68;;
13222;SDS011;6676;45.192;5.722;2023-02-15T19:36:23;15.70;;;9.65;;
13222;SDS011;6676;45.192;5.722;2023-02-15T19:39:37;11.50;;;9.08;;
13222;SDS011;6676;45.192;5.722;2023-02-15T19:42:30;13.60;;;9.43;;
13222;SDS011;6676;45.192;5.722;2023-02-15T19:45:22;14.70;;;9.55;;
13222;SDS011;6676;45.192;5.722;2023-02-15T19:48:15;15.10;;;9.68;;
13222;SDS011;6676;45.192;5.722;2023-02-15T19:51:07;12.30;;;8.90;;
13222;SDS011;6676;45.192;5.722;2023-02-15T19:54:00;13.08;;;9.53;;
13222;SDS011;6676;45.192;5.722;2023-02-15T19:56:52;13.62;;;9.60;;
13222;SDS011;6676;45.192;5.722;2023-02-15T19:59:44;13.35;;;9.03;;
13222;SDS011;6676;45.192;5.722;2023-02-15T20:02:35;12.13;;;9.20;;
13222;SDS011;6676;45.192;5.722;2023-02-15T20:05:27;10.72;;;8.50;;
13222;SDS011;6676;45.192;5.722;2023-02-15T20:08:21;15.40;;;8.83;;
13222;SDS011;6676;45.192;5.722;2023-02-15T20:11:13;13.20;;;8.75;;
13222;SDS011;6676;45.192;5.722;2023-02-15T20:14:08;12.93;;;7.40;;
13222;SDS011;6676;45.192;5.722;2023-02-15T20:17:01;12.10;;;8.80;;
13222;SDS011;6676;45.192;5.722;2023-02-15T20:19:53;10.82;;;8.63;;
13222;SDS011;6676;45.192;5.722;2023-02-15T20:22:45;9.95;;;7.28;;
13222;SDS011;6676;45.192;5.722;2023-02-15T20:25:39;10.28;;;7.25;;
13222;SDS011;6676;45.192;5.722;2023-02-15T20:28:30;10.25;;;7.28;;
13222;SDS011;6676;45.192;5.722;2023-02-15T20:31:22;9.65;;;7.60;;
13222;SDS011;6676;45.192;5.722;2023-02-15T20:34:13;13.22;;;8.05;;
13222;SDS011;6676;45.192;5.722;2023-02-15T20:37:04;11.60;;;8.40;;
13222;SDS011;6676;45.192;5.722;2023-02-15T20:40:00;10.55;;;7.87;;
13222;SDS011;6676;45.192;5.722;2023-02-15T20:42:51;12.60;;;7.95;;
13222;SDS011;6676;45.192;5.722;2023-02-15T20:45:44;11.88;;;8.15;;
13222;SDS011;6676;45.192;5.722;2023-02-15T20:48:36;10.50;;;8.03;;
13222;SDS011;6676;45.192;5.722;2023-02-15T20:51:27;11.73;;;7.95;;
13222;SDS011;6676;45.192;5.722;2023-02-15T20:54:32;12.28;;;8.98;;
13222;SDS011;6676;45.192;5.722;2023-02-15T20:57:24;14.23;;;8.93;;
13222;SDS011;6676;45.192;5.722;2023-02-15T21:00:17;12.13;;;8.80;;
13222;SDS011;6676;45.192;5.722;2023-02-15T21:03:11;13.48;;;8.80;;
13222;SDS011;6676;45.192;5.722;2023-02-15T21:06:04;14.38;;;9.23;;
13222;SDS011;6676;45.192;5.722;2023-02-15T21:08:56;13.43;;;9.43;;
13222;SDS011;6676;45.192;5.722;2023-02-15T21:11:49;13.13;;;8.73;;
13222;SDS011;6676;45.192;5.722;2023-02-15T21:14:42;12.85;;;9.40;;
13222;SDS011;6676;45.192;5.722;2023-02-15T21:17:34;14.30;;;10.23;;
13222;SDS011;6676;45.192;5.722;2023-02-15T21:20:26;13.80;;;9.25;;
13222;SDS011;6676;45.192;5.722;2023-02-15T21:23:13;14.40;;;9.23;;
13222;SDS011;6676;45.192;5.722;2023-02-15T21:26:10;12.45;;;10.25;;
13222;SDS011;6676;45.192;5.722;2023-02-15T21:29:27;15.95;;;9.93;;
13222;SDS011;6676;45.192;5.722;2023-02-15T21:32:28;14.43;;;9.93;;
13222;SDS011;6676;45.192;5.722;2023-02-15T21:35:23;15.00;;;10.05;;
13222;SDS011;6676;45.192;5.722;2023-02-15T21:40:54;13.70;;;10.05;;
13222;SDS011;6676;45.192;5.722;2023-02-15T21:43:48;12.60;;;9.18;;
13222;SDS011;6676;45.192;5.722;2023-02-15T21:49:49;15.85;;;10.82;;
13222;SDS011;6676;45.192;5.722;2023-02-15T21:52:41;15.05;;;11.10;;
13222;SDS011;6676;45.192;5.722;2023-02-15T21:58:19;17.37;;;11.28;;
13222;SDS011;6676;45.192;5.722;2023-02-15T22:01:17;15.88;;;11.85;;